Time;durP1;ratioP1;P1;durP2;ratioP2;P2;SDS_P1;SDS_P2;PMS_P1;PMS_P2;Temp;Humidity;BMP_temperature;BMP_pressure;BME280_temperature;BME280_humidity;BME280_pressure;Samples;Min_cycle;Max_cycle;Signal;HPM_P1;HPM_P2
2023/06/13 00:01:17;;;;;;;11.10;4.50;;;19.20;99.90;;;;;;4971128;28;20410;-76
2023/06/13 00:03:47;;;;;;;8.20;3.60;;;19.20;99.90;;;;;;4971035;28;20423;-76
2023/06/13 00:06:15;;;;;;;8.40;3.70;;;19.30;99.90;;;;;;4970265;28;20400;-76
2023/06/13 00:08:42;;;;;;;9.45;3.65;;;19.20;99.90;;;;;;4971914;28;20415;-76
2023/06/13 00:11:07;;;;;;;9.82;3.88;;;19.20;99.90;;;;;;4971605;28;20431;-76
2023/06/13 00:13:34;;;;;;;8.77;4.00;;;19.10;99.90;;;;;;4971662;28;20431;-76
2023/06/13 00:16:00;;;;;;;8.68;3.75;;;19.00;99.90;;;;;;4971433;28;20465;-76
2023/06/13 00:18:29;;;;;;;9.68;3.22;;;18.70;99.90;;;;;;4970737;28;20412;-76
2023/06/13 00:20:55;;;;;;;8.45;3.35;;;18.50;99.90;;;;;;4971572;28;20507;-76
2023/06/13 00:23:21;;;;;;;8.93;3.60;;;18.30;99.90;;;;;;4970622;28;20416;-77
2023/06/13 00:25:47;;;;;;;10.00;4.10;;;18.20;99.90;;;;;;4970038;28;20439;-76
2023/06/13 00:28:13;;;;;;;8.88;3.40;;;18.10;99.90;;;;;;4971037;28;20415;-76
2023/06/13 00:30:38;;;;;;;9.20;3.40;;;17.90;99.90;;;;;;4970543;28;20913;-76
2023/06/13 00:33:05;;;;;;;10.20;3.35;;;17.70;99.90;;;;;;4970568;28;20892;-76
2023/06/13 00:35:31;;;;;;;9.10;3.70;;;17.70;99.90;;;;;;4971346;28;20501;-76
2023/06/13 00:37:57;;;;;;;7.93;3.50;;;17.60;99.90;;;;;;4970835;28;20730;-76
2023/06/13 00:40:23;;;;;;;8.90;3.63;;;17.50;99.90;;;;;;4970411;28;20444;-76
2023/06/13 00:42:52;;;;;;;10.07;3.65;;;17.40;99.90;;;;;;4970993;28;20475;-76
2023/06/13 00:45:22;;;;;;;9.40;3.70;;;17.40;99.90;;;;;;4971255;28;20518;-76
2023/06/13 00:47:51;;;;;;;9.40;3.70;;;17.40;99.90;;;;;;4969766;28;20437;-76
2023/06/13 00:50:18;;;;;;;10.55;3.50;;;17.30;99.90;;;;;;4970901;28;20874;-76
2023/06/13 00:52:45;;;;;;;8.57;4.00;;;17.20;99.90;;;;;;4955234;28;20428;-76
2023/06/13 00:55:11;;;;;;;9.65;4.00;;;17.20;99.90;;;;;;4955859;28;20508;-76
2023/06/13 00:57:38;;;;;;;8.63;3.45;;;17.30;99.90;;;;;;4963599;28;20944;-76
2023/06/13 01:00:05;;;;;;;8.98;3.50;;;17.40;99.90;;;;;;4970831;28;20396;-76
2023/06/13 01:02:33;;;;;;;9.00;3.60;;;17.40;99.90;;;;;;4970062;28;20424;-77
2023/06/13 01:05:00;;;;;;;9.73;3.60;;;17.40;99.90;;;;;;4952832;28;20408;-76
2023/06/13 01:07:29;;;;;;;7.90;3.40;;;17.40;99.90;;;;;;4969089;28;20416;-76
2023/06/13 01:09:56;;;;;;;10.00;3.60;;;17.30;99.90;;;;;;4969849;28;20428;-76
2023/06/13 01:12:32;;;;;;;8.68;3.70;;;17.30;99.90;;;;;;4953190;28;20426;-76
2023/06/13 01:15:07;;;;;;;8.87;3.50;;;17.30;99.90;;;;;;4970073;28;20905;-76
2023/06/13 01:17:57;;;;;;;10.20;4.30;;;17.20;99.90;;;;;;4960959;28;20927;-77
2023/06/13 01:20:26;;;;;;;9.98;3.67;;;17.20;99.90;;;;;;4969775;28;20423;-76
2023/06/13 01:23:28;;;;;;;8.43;3.50;;;17.10;99.90;;;;;;4969399;28;20412;-76
2023/06/13 01:26:04;;;;;;;8.20;3.50;;;17.10;99.90;;;;;;4970869;28;20440;-76
2023/06/13 01:28:33;;;;;;;10.47;3.63;;;17.10;99.90;;;;;;4960456;28;21291;-76
2023/06/13 01:31:01;;;;;;;8.23;3.40;;;17.10;99.90;;;;;;4964160;28;20908;-76
2023/06/13 01:33:28;;;;;;;8.20;3.20;;;17.10;99.90;;;;;;4970480;28;20424;-76
2023/06/13 01:35:54;;;;;;;10.70;3.90;;;17.10;99.90;;;;;;4970918;28;20467;-76
2023/06/13 01:38:20;;;;;;;9.48;3.70;;;17.00;99.90;;;;;;4970226;28;20487;-76
2023/06/13 01:40:48;;;;;;;13.13;3.90;;;17.00;99.90;;;;;;4971001;28;20418;-76
2023/06/13 01:43:13;;;;;;;9.10;3.60;;;16.90;99.90;;;;;;4970189;28;20415;-76
2023/06/13 01:45:39;;;;;;;8.50;3.58;;;16.80;99.90;;;;;;4970461;28;20950;-76
2023/06/13 01:48:16;;;;;;;11.10;3.80;;;16.70;99.90;;;;;;4968662;28;20434;-76
2023/06/13 01:51:06;;;;;;;7.93;3.60;;;16.60;99.90;;;;;;4969845;28;20924;-76
2023/06/13 01:53:48;;;;;;;9.65;3.83;;;16.50;99.90;;;;;;4969349;28;20435;-76
2023/06/13 01:56:19;;;;;;;8.43;3.70;;;16.40;99.90;;;;;;4969539;28;20428;-76
2023/06/13 01:58:50;;;;;;;8.60;3.70;;;16.40;99.90;;;;;;4969449;28;20486;-76
2023/06/13 02:01:18;;;;;;;8.48;3.70;;;16.30;99.90;;;;;;4969261;28;20535;-76
2023/06/13 02:03:44;;;;;;;9.57;3.70;;;16.30;99.90;;;;;;4969408;28;20408;-76
2023/06/13 02:06:09;;;;;;;11.67;4.40;;;16.20;99.90;;;;;;4969778;28;20777;-76
2023/06/13 02:08:35;;;;;;;9.80;3.80;;;16.20;99.90;;;;;;4968335;28;20412;-76
2023/06/13 02:11:01;;;;;;;11.52;3.90;;;16.30;99.90;;;;;;4953312;28;20445;-76
2023/06/13 02:13:26;;;;;;;8.40;3.43;;;16.20;99.90;;;;;;4943551;28;20452;-76
2023/06/13 02:15:52;;;;;;;7.90;3.70;;;16.20;99.90;;;;;;4969328;28;20471;-76
2023/06/13 02:18:17;;;;;;;9.00;3.80;;;16.10;99.90;;;;;;4969665;28;20388;-74
2023/06/13 02:20:43;;;;;;;8.38;3.55;;;16.00;99.90;;;;;;4969906;28;20889;-75
2023/06/13 02:23:09;;;;;;;10.70;3.83;;;16.00;99.90;;;;;;4969666;28;20895;-75
2023/06/13 02:25:35;;;;;;;9.38;3.92;;;15.90;99.90;;;;;;4969825;28;20419;-75
2023/06/13 02:28:01;;;;;;;9.00;3.85;;;15.90;99.90;;;;;;4969234;28;20847;-75
2023/06/13 02:30:27;;;;;;;9.48;4.20;;;15.80;99.90;;;;;;4971153;28;20501;-74
2023/06/13 02:32:53;;;;;;;8.47;3.90;;;15.70;99.90;;;;;;4970167;28;20424;-75
2023/06/13 02:35:22;;;;;;;10.98;3.70;;;15.60;99.90;;;;;;4969698;28;20431;-75
2023/06/13 02:37:50;;;;;;;9.52;4.07;;;15.60;99.90;;;;;;4969359;28;20917;-75
2023/06/13 02:40:16;;;;;;;8.40;3.65;;;15.50;99.90;;;;;;4968816;28;20900;-75
2023/06/13 02:42:45;;;;;;;9.32;3.55;;;15.50;99.90;;;;;;4968855;28;20416;-75
2023/06/13 02:45:10;;;;;;;8.70;3.40;;;15.50;99.90;;;;;;4968567;28;20416;-74
2023/06/13 02:47:36;;;;;;;8.37;4.10;;;15.50;99.90;;;;;;4968906;28;20750;-75
2023/06/13 02:50:02;;;;;;;8.93;3.97;;;15.50;99.90;;;;;;4969689;28;20889;-75
2023/06/13 02:52:28;;;;;;;8.60;3.60;;;15.40;99.90;;;;;;4952691;28;20539;-75
2023/06/13 02:54:53;;;;;;;8.85;3.72;;;15.40;99.90;;;;;;4969723;28;20439;-75
2023/06/13 02:57:19;;;;;;;8.32;3.80;;;15.40;99.90;;;;;;4968151;28;20988;-75
2023/06/13 02:59:44;;;;;;;9.00;3.50;;;15.50;99.90;;;;;;4969453;28;20419;-75
2023/06/13 03:02:10;;;;;;;9.93;3.50;;;15.50;99.90;;;;;;4968302;28;20424;-75
2023/06/13 03:04:36;;;;;;;9.68;3.40;;;15.50;99.90;;;;;;4971006;28;20515;-75
2023/06/13 03:07:04;;;;;;;8.88;3.42;;;15.60;99.90;;;;;;4958607;28;20766;-75
2023/06/13 03:09:30;;;;;;;9.50;3.43;;;15.60;99.90;;;;;;4965446;28;20483;-75
2023/06/13 03:11:56;;;;;;;8.32;3.63;;;15.80;99.90;;;;;;4969499;28;20419;-75
2023/06/13 03:14:22;;;;;;;7.70;3.30;;;15.80;99.90;;;;;;4968806;28;20447;-76
2023/06/13 03:16:48;;;;;;;9.27;3.20;;;15.80;99.90;;;;;;4968819;28;20424;-75
2023/06/13 03:19:14;;;;;;;9.02;3.60;;;15.90;99.90;;;;;;4968334;28;20447;-75
2023/06/13 03:21:41;;;;;;;8.53;3.90;;;15.80;99.90;;;;;;4973119;28;20436;-75
2023/06/13 03:24:06;;;;;;;9.60;3.58;;;15.80;99.90;;;;;;4955205;28;20504;-75
2023/06/13 03:26:37;;;;;;;8.20;3.40;;;15.70;99.90;;;;;;4972748;28;20494;-75
2023/06/13 03:29:03;;;;;;;7.95;3.50;;;15.70;99.90;;;;;;4971870;28;20961;-75
2023/06/13 03:31:29;;;;;;;8.80;3.23;;;15.70;99.90;;;;;;4972333;28;20423;-75
2023/06/13 03:33:54;;;;;;;9.13;3.70;;;15.70;99.90;;;;;;4972881;28;20448;-75
2023/06/13 03:36:20;;;;;;;9.80;3.60;;;15.80;99.90;;;;;;4973059;28;20741;-75
2023/06/13 03:38:45;;;;;;;9.37;3.67;;;15.80;99.90;;;;;;4971725;28;20422;-75
2023/06/13 03:41:11;;;;;;;7.50;3.10;;;15.80;99.90;;;;;;4971739;28;20440;-74
2023/06/13 03:43:36;;;;;;;9.47;2.90;;;15.90;99.90;;;;;;4968943;28;20496;-74
2023/06/13 03:46:01;;;;;;;8.10;3.70;;;15.90;99.90;;;;;;4972044;28;20499;-75
2023/06/13 03:48:27;;;;;;;9.97;3.80;;;16.00;99.90;;;;;;4972052;28;20450;-74
2023/06/13 03:50:53;;;;;;;9.20;3.40;;;16.00;99.90;;;;;;4972181;28;20462;-75
2023/06/13 03:53:18;;;;;;;8.90;3.03;;;15.90;99.90;;;;;;4971500;28;20511;-75
2023/06/13 03:55:44;;;;;;;9.07;3.10;;;15.90;99.90;;;;;;4970930;28;20766;-75
2023/06/13 03:58:11;;;;;;;9.60;3.13;;;15.90;99.90;;;;;;4969983;28;21438;-75
2023/06/13 04:00:39;;;;;;;8.90;3.60;;;15.90;99.90;;;;;;4971901;28;20408;-75
2023/06/13 04:03:07;;;;;;;8.45;2.95;;;15.90;99.90;;;;;;4971320;28;20463;-75
2023/06/13 04:05:33;;;;;;;9.07;3.00;;;15.90;99.90;;;;;;4972241;28;20415;-75
2023/06/13 04:07:59;;;;;;;8.60;3.10;;;15.90;99.90;;;;;;4973115;28;20404;-74
2023/06/13 04:10:25;;;;;;;8.52;3.65;;;15.90;99.90;;;;;;4971077;28;20430;-75
2023/06/13 04:12:50;;;;;;;9.38;3.30;;;16.00;99.90;;;;;;4960229;28;20886;-75
2023/06/13 04:15:16;;;;;;;8.33;3.23;;;16.20;99.90;;;;;;4971412;28;21011;-75
2023/06/13 04:17:42;;;;;;;8.88;3.50;;;16.20;99.90;;;;;;4971064;28;20503;-74
2023/06/13 04:20:09;;;;;;;8.05;3.20;;;16.30;99.90;;;;;;4969967;28;20453;-74
2023/06/13 04:22:35;;;;;;;8.10;3.40;;;16.30;99.90;;;;;;4953787;28;20996;-74
2023/06/13 04:25:01;;;;;;;8.80;3.45;;;16.40;99.90;;;;;;4970578;28;20494;-75
2023/06/13 04:27:29;;;;;;;12.48;3.50;;;16.50;99.90;;;;;;4959376;28;20488;-75
2023/06/13 04:29:56;;;;;;;8.43;3.60;;;16.50;99.90;;;;;;4953001;29;20440;-75
2023/06/13 04:32:23;;;;;;;8.90;3.50;;;16.50;99.90;;;;;;4963669;28;20503;-75
2023/06/13 04:34:54;;;;;;;8.98;3.40;;;16.50;99.90;;;;;;4971443;28;20435;-75
2023/06/13 04:37:25;;;;;;;7.60;3.40;;;16.50;99.90;;;;;;4972102;28;21161;-75
2023/06/13 04:39:54;;;;;;;7.50;3.00;;;16.50;99.90;;;;;;4975072;28;20419;-75
2023/06/13 04:42:27;;;;;;;7.82;3.17;;;16.60;99.90;;;;;;4993187;28;20844;-75
2023/06/13 04:44:58;;;;;;;9.10;3.33;;;16.70;99.90;;;;;;4976176;28;20407;-74
2023/06/13 04:47:24;;;;;;;8.50;3.10;;;16.80;99.90;;;;;;4971496;28;20596;-76
2023/06/13 04:49:51;;;;;;;8.32;3.13;;;16.90;99.90;;;;;;4967742;28;20404;-77
2023/06/13 04:52:18;;;;;;;7.65;3.00;;;17.00;99.90;;;;;;4969431;28;20432;-76
2023/06/13 04:54:45;;;;;;;10.13;3.50;;;17.10;99.90;;;;;;4966604;28;20456;-77
2023/06/13 04:57:12;;;;;;;8.77;3.53;;;17.70;99.90;;;;;;4970205;28;20392;-76
2023/06/13 04:59:38;;;;;;;9.85;3.65;;;18.60;99.90;;;;;;4970818;28;20427;-75
2023/06/13 05:02:04;;;;;;;8.87;3.50;;;19.90;99.90;;;;;;4971005;28;20889;-75
2023/06/13 05:04:29;;;;;;;8.10;3.30;;;20.90;99.90;;;;;;4971019;28;20470;-74
2023/06/13 05:06:57;;;;;;;7.90;3.20;;;21.70;99.90;;;;;;4953776;28;20406;-74
2023/06/13 05:09:22;;;;;;;9.48;3.90;;;22.70;99.90;;;;;;4969891;28;20550;-75
2023/06/13 05:11:48;;;;;;;8.00;3.20;;;23.50;99.90;;;;;;4969464;28;20991;-75
2023/06/13 05:14:13;;;;;;;7.30;3.08;;;24.00;99.90;;;;;;4968551;28;20443;-74
2023/06/13 05:16:40;;;;;;;7.95;3.50;;;24.90;99.90;;;;;;4970467;28;20897;-75
2023/06/13 05:19:06;;;;;;;7.03;2.90;;;25.80;99.90;;;;;;4971099;28;20463;-75
2023/06/13 05:21:34;;;;;;;12.73;3.33;;;25.40;99.90;;;;;;4970766;28;20396;-76
2023/06/13 05:24:00;;;;;;;8.57;3.00;;;25.40;99.90;;;;;;4971137;28;20388;-74
2023/06/13 05:26:26;;;;;;;8.20;3.45;;;25.80;99.90;;;;;;4966815;28;20417;-75
2023/06/13 05:28:51;;;;;;;7.50;3.10;;;26.10;99.90;;;;;;4951019;29;20398;-75
2023/06/13 05:31:17;;;;;;;7.10;2.90;;;26.20;99.90;;;;;;4951223;29;20401;-75
2023/06/13 05:33:43;;;;;;;7.28;3.00;;;26.10;99.90;;;;;;4952075;29;20478;-75
2023/06/13 05:36:09;;;;;;;7.97;3.07;;;26.30;99.90;;;;;;4951037;29;20484;-75
2023/06/13 05:38:36;;;;;;;8.83;3.00;;;26.30;99.90;;;;;;4951091;29;20457;-75
2023/06/13 05:41:01;;;;;;;7.80;3.05;;;25.90;99.90;;;;;;4950378;29;20922;-75
2023/06/13 05:43:27;;;;;;;7.68;3.20;;;26.10;99.90;;;;;;4950397;28;20481;-75
2023/06/13 05:45:53;;;;;;;8.40;2.80;;;26.00;99.90;;;;;;4951393;29;20701;-75
2023/06/13 05:48:18;;;;;;;8.80;3.50;;;26.40;99.90;;;;;;4950969;29;20496;-75
2023/06/13 05:50:44;;;;;;;7.20;2.73;;;27.20;99.90;;;;;;4950685;29;20843;-75
2023/06/13 05:53:10;;;;;;;6.53;2.90;;;26.60;99.90;;;;;;4950851;29;20922;-73
2023/06/13 05:55:36;;;;;;;7.13;2.85;;;26.50;99.90;;;;;;4949378;29;20493;-73
2023/06/13 05:58:01;;;;;;;10.48;3.03;;;26.40;99.90;;;;;;4949215;29;20485;-73
2023/06/13 06:00:27;;;;;;;8.20;2.90;;;26.30;99.90;;;;;;4951494;29;20393;-73
2023/06/13 06:02:52;;;;;;;7.30;2.80;;;27.00;99.90;;;;;;4950768;29;20449;-73
2023/06/13 06:05:19;;;;;;;9.30;3.10;;;27.50;99.90;;;;;;4959397;28;20444;-75
2023/06/13 06:07:45;;;;;;;8.38;3.00;;;28.10;99.90;;;;;;4960182;28;20582;-75
2023/06/13 06:10:11;;;;;;;7.30;2.70;;;27.40;99.90;;;;;;4961160;28;20495;-76
2023/06/13 06:12:37;;;;;;;10.88;2.80;;;27.60;99.90;;;;;;4970018;28;20399;-76
2023/06/13 06:15:03;;;;;;;7.68;2.97;;;27.60;99.90;;;;;;4954265;28;20437;-76
2023/06/13 06:17:29;;;;;;;9.10;3.10;;;27.40;99.90;;;;;;4950599;29;20425;-73
2023/06/13 06:19:54;;;;;;;7.32;3.30;;;27.30;99.90;;;;;;4950931;29;20442;-73
2023/06/13 06:22:20;;;;;;;7.80;2.58;;;27.10;99.90;;;;;;4937971;28;20420;-73
2023/06/13 06:24:45;;;;;;;7.50;2.90;;;27.40;99.90;;;;;;4952497;28;20439;-76
2023/06/13 06:27:12;;;;;;;7.80;3.30;;;28.00;99.90;;;;;;4969773;28;20392;-76
2023/06/13 06:29:38;;;;;;;7.43;2.67;;;27.50;99.90;;;;;;4969701;28;20407;-73
2023/06/13 06:32:05;;;;;;;7.22;3.00;;;26.90;99.90;;;;;;4969706;28;20402;-74
2023/06/13 06:34:31;;;;;;;9.00;3.50;;;26.60;99.90;;;;;;4970320;28;20520;-74
2023/06/13 06:36:56;;;;;;;8.90;2.90;;;25.90;99.90;;;;;;4970510;28;20412;-74
2023/06/13 06:39:22;;;;;;;8.57;3.08;;;;;;;;;;4969950;28;20392;-74
2023/06/13 06:41:48;;;;;;;9.48;3.50;;;27.60;99.90;;;;;;4969675;28;20475;-74
2023/06/13 06:44:14;;;;;;;8.10;3.20;;;27.40;99.90;;;;;;4969706;28;20415;-74
2023/06/13 06:46:39;;;;;;;7.80;3.30;;;26.60;99.90;;;;;;4969687;28;20403;-74
2023/06/13 06:49:05;;;;;;;7.00;2.50;;;26.80;99.90;;;;;;4969390;28;20419;-74
2023/06/13 06:51:30;;;;;;;7.38;2.70;;;27.50;99.90;;;;;;4969095;28;20480;-74
2023/06/13 06:53:56;;;;;;;8.40;2.80;;;27.30;99.90;;;;;;4969835;28;20470;-75
2023/06/13 06:56:22;;;;;;;9.90;2.75;;;27.20;99.90;;;;;;4973040;28;20499;-75
2023/06/13 06:58:48;;;;;;;9.25;3.20;;;27.40;99.90;;;;;;4973864;28;20419;-75
2023/06/13 07:01:15;;;;;;;7.55;3.33;;;28.20;99.90;;;;;;4973400;28;20407;-75
2023/06/13 07:03:41;;;;;;;7.05;2.72;;;28.70;99.90;;;;;;4973462;28;20463;-76
2023/06/13 07:06:07;;;;;;;8.63;2.90;;;29.30;99.90;;;;;;4973513;28;20825;-76
2023/06/13 07:08:32;;;;;;;8.40;2.60;;;28.70;99.90;;;;;;4973129;28;20382;-76
2023/06/13 07:10:58;;;;;;;7.23;2.90;;;27.80;99.90;;;;;;4973184;28;20420;-75
2023/06/13 07:13:25;;;;;;;7.87;3.43;;;28.00;99.90;;;;;;4973257;28;20392;-76
2023/06/13 07:15:51;;;;;;;9.43;2.90;;;28.30;99.90;;;;;;4973468;28;20455;-76
2023/06/13 07:18:16;;;;;;;6.90;2.70;;;28.00;99.90;;;;;;4973663;28;20905;-76
2023/06/13 07:20:44;;;;;;;7.40;2.90;;;28.20;99.90;;;;;;4972965;28;20483;-76
2023/06/13 07:23:10;;;;;;;8.30;3.00;;;29.00;99.90;;;;;;4973873;28;20379;-76
2023/06/13 07:25:35;;;;;;;7.10;3.00;;;28.70;99.90;;;;;;4973391;28;20407;-75
2023/06/13 07:28:01;;;;;;;7.57;2.47;;;28.40;99.90;;;;;;4973157;28;20404;-75
2023/06/13 07:30:26;;;;;;;7.93;2.65;;;28.60;99.90;;;;;;4973591;28;20392;-76
2023/06/13 07:32:52;;;;;;;6.80;2.80;;;28.80;99.90;;;;;;4973115;28;20408;-76
2023/06/13 07:35:23;;;;;;;7.83;3.30;;;28.40;99.90;;;;;;4972561;28;20960;-76
2023/06/13 07:37:49;;;;;;;8.05;2.55;;;28.10;99.90;;;;;;4973050;28;20396;-76
2023/06/13 07:40:16;;;;;;;9.10;2.97;;;28.60;99.90;;;;;;4973104;28;20749;-76
2023/06/13 07:42:42;;;;;;;8.53;2.90;;;28.90;99.90;;;;;;4973247;28;20881;-76
2023/06/13 07:45:07;;;;;;;10.80;3.95;;;28.60;99.90;;;;;;4972902;28;20695;-76
2023/06/13 07:47:35;;;;;;;7.90;2.90;;;29.00;99.90;;;;;;4972802;28;20455;-76
2023/06/13 07:50:01;;;;;;;8.20;3.10;;;28.40;99.90;;;;;;4972193;28;20897;-76
2023/06/13 07:52:26;;;;;;;8.50;2.73;;;29.00;99.90;;;;;;4972823;28;20412;-76
2023/06/13 07:54:52;;;;;;;8.77;3.40;;;29.10;99.90;;;;;;4972722;28;20428;-76
2023/06/13 07:57:18;;;;;;;8.30;3.23;;;29.90;99.90;;;;;;4961434;28;20398;-76
2023/06/13 07:59:44;;;;;;;8.57;3.17;;;30.60;99.90;;;;;;4952901;29;20394;-76
2023/06/13 08:02:10;;;;;;;7.97;3.23;;;31.00;99.90;;;;;;4953674;29;20436;-76
2023/06/13 08:04:35;;;;;;;8.13;2.70;;;30.60;99.90;;;;;;4952734;29;20465;-76
2023/06/13 08:07:01;;;;;;;7.40;2.90;;;30.20;99.90;;;;;;4952185;28;20401;-76
2023/06/13 08:09:27;;;;;;;9.03;2.73;;;30.00;99.90;;;;;;4936676;29;20439;-76
2023/06/13 08:11:52;;;;;;;9.93;3.37;;;30.00;99.90;;;;;;4959344;29;20413;-76
2023/06/13 08:14:18;;;;;;;7.20;2.60;;;30.10;99.90;;;;;;4976780;29;20408;-76
2023/06/13 08:16:43;;;;;;;7.15;3.00;;;29.70;99.90;;;;;;4970401;29;20530;-76
2023/06/13 08:19:09;;;;;;;9.20;3.27;;;30.30;99.90;;;;;;4952804;29;20417;-76
2023/06/13 08:21:34;;;;;;;8.17;3.20;;;30.70;99.90;;;;;;4952583;29;20413;-74
2023/06/13 08:24:00;;;;;;;8.50;2.90;;;31.50;99.90;;;;;;4952547;29;20702;-74
2023/06/13 08:26:27;;;;;;;8.90;3.10;;;31.60;99.90;;;;;;4957186;28;20491;-74
2023/06/13 08:28:53;;;;;;;7.95;2.97;;;31.20;99.90;;;;;;4971884;28;20765;-75
2023/06/13 08:31:23;;;;;;;9.10;2.70;;;30.30;99.90;;;;;;4971840;28;20455;-76
2023/06/13 08:33:50;;;;;;;6.80;2.60;;;30.00;99.90;;;;;;4971372;28;20428;-76
2023/06/13 08:36:16;;;;;;;8.30;3.13;;;29.80;99.90;;;;;;4971412;28;20820;-76
2023/06/13 08:38:42;;;;;;;7.83;2.90;;;30.00;99.90;;;;;;4971595;28;20397;-76
2023/06/13 08:41:08;;;;;;;8.27;2.90;;;30.20;99.90;;;;;;4971864;28;20407;-76
2023/06/13 08:43:34;;;;;;;7.20;2.50;;;29.90;99.90;;;;;;4971835;28;20458;-76
2023/06/13 08:46:00;;;;;;;6.75;2.50;;;29.90;99.90;;;;;;4971586;28;20400;-76
2023/06/13 08:48:25;;;;;;;9.80;2.90;;;30.50;99.90;;;;;;4971423;28;20983;-76
2023/06/13 08:50:52;;;;;;;9.23;3.70;;;30.50;99.90;;;;;;4971070;28;20908;-76
2023/06/13 08:53:19;;;;;;;7.43;2.80;;;31.50;99.90;;;;;;4971479;28;20434;-74
2023/06/13 08:55:45;;;;;;;6.93;3.05;;;31.70;99.90;;;;;;4971307;28;20810;-75
2023/06/13 08:58:15;;;;;;;9.05;3.35;;;31.30;99.90;;;;;;4970570;28;20495;-76
2023/06/13 09:00:41;;;;;;;8.00;3.35;;;32.00;99.90;;;;;;4971420;28;20396;-74
2023/06/13 09:03:12;;;;;;;8.37;3.30;;;31.20;99.90;;;;;;4970875;28;20404;-76
2023/06/13 09:05:38;;;;;;;8.05;3.22;;;30.80;99.90;;;;;;4971348;28;20400;-76
2023/06/13 09:08:05;;;;;;;9.20;3.28;;;30.70;99.90;;;;;;4970826;28;20431;-76
2023/06/13 09:10:32;;;;;;;7.45;3.03;;;31.00;99.90;;;;;;4970853;28;20416;-76
2023/06/13 09:12:58;;;;;;;7.70;2.90;;;31.60;99.90;;;;;;4971014;28;20789;-74
2023/06/13 09:15:26;;;;;;;7.30;3.28;;;32.30;99.90;;;;;;4970700;28;20882;-74
2023/06/13 09:17:53;;;;;;;7.43;3.40;;;31.80;99.90;;;;;;4970071;28;20377;-75
2023/06/13 09:20:19;;;;;;;8.90;2.95;;;31.40;99.90;;;;;;4970543;28;20491;-76
2023/06/13 09:22:46;;;;;;;9.10;3.47;;;31.30;99.90;;;;;;4970408;28;20410;-76
2023/06/13 09:25:16;;;;;;;8.88;3.40;;;30.90;99.90;;;;;;4970874;28;20408;-76
2023/06/13 09:27:41;;;;;;;7.90;3.28;;;31.00;99.90;;;;;;4970420;28;20492;-76
2023/06/13 09:30:08;;;;;;;7.65;2.90;;;32.20;99.90;;;;;;4970191;28;20495;-74
2023/06/13 09:32:34;;;;;;;7.40;2.92;;;32.70;99.90;;;;;;4970913;28;20466;-74
2023/06/13 09:35:02;;;;;;;8.50;3.20;;;33.00;99.90;;;;;;4970223;28;20419;-74
2023/06/13 09:37:29;;;;;;;7.43;2.70;;;32.40;99.90;;;;;;4970555;28;20385;-74
2023/06/13 09:39:54;;;;;;;8.00;2.85;;;31.60;99.90;;;;;;4970112;28;20420;-75
2023/06/13 09:42:23;;;;;;;9.20;3.33;;;31.40;99.90;;;;;;4970339;28;20388;-76
2023/06/13 09:44:50;;;;;;;9.38;3.15;;;31.50;99.90;;;;;;4969892;28;20563;-76
2023/06/13 09:47:23;;;;;;;7.88;3.45;;;32.20;99.90;;;;;;4970475;28;20411;-74
2023/06/13 09:49:57;;;;;;;7.38;2.90;;;32.50;99.90;;;;;;4970651;28;20388;-74
2023/06/13 09:52:24;;;;;;;7.50;3.22;;;31.90;99.90;;;;;;4969962;28;20456;-75
2023/06/13 09:54:51;;;;;;;7.30;2.90;;;31.80;99.90;;;;;;4969914;28;20428;-75
2023/06/13 09:57:17;;;;;;;6.78;2.83;;;32.60;99.90;;;;;;4958856;28;20872;-75
2023/06/13 09:59:42;;;;;;;7.83;3.10;;;32.90;99.90;;;;;;4950069;29;20536;-76
2023/06/13 10:02:08;;;;;;;11.80;3.40;;;33.50;99.90;;;;;;4952293;29;20468;-76
2023/06/13 10:04:34;;;;;;;8.00;2.95;;;34.20;99.90;;;;;;4955687;29;20705;-76
2023/06/13 10:07:02;;;;;;;8.13;3.00;;;33.40;99.90;;;;;;4954916;29;20394;-75
2023/06/13 10:09:27;;;;;;;10.63;3.15;;;32.70;99.90;;;;;;4955978;29;20433;-75
2023/06/13 10:11:55;;;;;;;8.40;3.03;;;32.70;99.90;;;;;;4955889;29;20397;-75
2023/06/13 10:14:22;;;;;;;8.00;2.50;;;32.70;99.90;;;;;;4966471;28;20782;-75
2023/06/13 10:17:02;;;;;;;7.70;3.00;;;32.70;99.90;;;;;;4975288;28;20779;-76
2023/06/13 10:19:30;;;;;;;6.70;2.80;;;32.70;99.90;;;;;;4973955;28;20402;-76
2023/06/13 10:21:57;;;;;;;8.43;3.67;;;33.20;99.90;;;;;;4975113;28;20889;-76
2023/06/13 10:24:23;;;;;;;7.07;3.00;;;32.70;99.90;;;;;;4975188;28;20408;-75
2023/06/13 10:26:53;;;;;;;8.32;3.50;;;32.20;99.90;;;;;;4972477;28;21252;-76
2023/06/13 10:29:41;;;;;;;8.52;3.30;;;31.80;99.90;;;;;;4970028;28;20895;-75
2023/06/13 10:32:21;;;;;;;8.17;3.13;;;30.60;99.90;;;;;;4971170;28;20459;-75
2023/06/13 10:35:03;;;;;;;7.90;2.70;;;29.50;99.90;;;;;;4970924;28;20420;-75
2023/06/13 10:37:47;;;;;;;8.05;3.72;;;29.00;99.90;;;;;;4970733;28;20474;-76
2023/06/13 10:40:47;;;;;;;8.40;3.20;;;28.80;99.90;;;;;;4970801;28;20400;-75
2023/06/13 10:43:43;;;;;;;9.03;3.73;;;27.90;99.90;;;;;;4973410;28;20415;-75
2023/06/13 10:46:09;;;;;;;7.07;3.00;;;27.40;99.90;;;;;;4971157;28;20911;-75
2023/06/13 10:48:42;;;;;;;7.33;3.27;;;27.40;99.90;;;;;;4970262;28;20396;-75
2023/06/13 10:51:09;;;;;;;8.90;3.83;;;27.70;99.90;;;;;;4969816;28;20907;-75
2023/06/13 10:53:37;;;;;;;8.48;3.33;;;28.10;99.90;;;;;;4970044;28;20487;-75
2023/06/13 10:56:06;;;;;;;9.87;3.40;;;28.00;99.90;;;;;;4968508;28;20825;-75
2023/06/13 10:58:34;;;;;;;8.20;4.00;;;27.80;99.90;;;;;;4951277;29;20405;-75
2023/06/13 11:01:26;;;;;;;8.52;3.90;;;28.00;99.90;;;;;;4951112;29;20390;-75
2023/06/13 11:03:52;;;;;;;10.32;3.30;;;27.90;99.90;;;;;;4947935;28;20412;-75
2023/06/13 11:06:17;;;;;;;10.25;3.55;;;27.70;99.90;;;;;;4969128;28;20392;-75
2023/06/13 11:08:43;;;;;;;7.30;3.00;;;27.80;99.90;;;;;;4969826;28;20404;-75
2023/06/13 11:11:09;;;;;;;9.02;3.30;;;28.30;99.90;;;;;;4970501;28;20415;-75
2023/06/13 11:13:36;;;;;;;8.00;3.30;;;28.50;99.90;;;;;;4968854;28;20388;-75
2023/06/13 11:16:22;;;;;;;8.10;3.65;;;28.70;99.90;;;;;;4969499;28;20403;-75
2023/06/13 11:18:48;;;;;;;8.25;3.60;;;28.90;99.90;;;;;;4969536;28;20750;-75
2023/06/13 11:21:14;;;;;;;9.52;3.50;;;29.10;99.90;;;;;;4969372;28;20393;-74
2023/06/13 11:23:54;;;;;;;8.30;3.28;;;28.00;99.90;;;;;;4969240;28;20448;-74
2023/06/13 11:26:21;;;;;;;11.52;3.53;;;27.20;99.90;;;;;;4965982;28;20398;-74
2023/06/13 11:28:48;;;;;;;8.10;3.25;;;27.00;99.90;;;;;;4949823;29;20398;-75
2023/06/13 11:31:16;;;;;;;7.25;3.38;;;27.70;99.90;;;;;;4949961;29;20827;-75
2023/06/13 11:33:45;;;;;;;7.22;3.13;;;28.20;99.90;;;;;;4949737;29;20405;-75
2023/06/13 11:36:12;;;;;;;7.10;3.10;;;28.50;99.90;;;;;;4949704;29;20405;-75
2023/06/13 11:38:52;;;;;;;7.82;3.33;;;28.70;99.90;;;;;;4950000;29;20400;-75
2023/06/13 11:41:17;;;;;;;9.07;3.70;;;28.70;99.90;;;;;;4949419;28;20759;-75
2023/06/13 11:43:44;;;;;;;9.20;3.87;;;28.50;99.90;;;;;;4952796;29;20501;-75
2023/06/13 11:46:12;;;;;;;7.78;3.35;;;28.20;99.90;;;;;;4953346;29;20409;-75
2023/06/13 11:48:37;;;;;;;7.80;3.30;;;28.20;99.90;;;;;;4953272;29;20409;-75
2023/06/13 11:51:14;;;;;;;7.40;3.10;;;28.50;99.90;;;;;;4952859;29;20397;-75
2023/06/13 11:53:47;;;;;;;8.43;3.60;;;28.50;99.90;;;;;;4955502;28;20408;-75
2023/06/13 11:56:12;;;;;;;7.97;3.40;;;28.60;99.90;;;;;;4966397;28;20725;-75
2023/06/13 11:58:38;;;;;;;8.33;3.50;;;28.90;99.90;;;;;;4971020;28;20388;-75
2023/06/13 12:01:04;;;;;;;8.77;3.42;;;28.80;99.90;;;;;;4971596;28;20404;-75
2023/06/13 12:03:37;;;;;;;8.43;3.80;;;29.00;99.90;;;;;;4968859;28;20399;-75
2023/06/13 12:06:05;;;;;;;7.80;3.57;;;28.60;99.90;;;;;;4970642;28;20384;-76
2023/06/13 12:08:34;;;;;;;9.82;3.70;;;27.70;99.90;;;;;;4972709;28;20455;-76
2023/06/13 12:11:03;;;;;;;9.40;4.20;;;27.70;99.90;;;;;;4971688;28;20404;-74
2023/06/13 12:13:28;;;;;;;8.85;3.40;;;28.00;99.90;;;;;;4971570;28;20735;-74
2023/06/13 12:15:54;;;;;;;12.27;3.30;;;28.10;99.90;;;;;;4972313;28;20430;-74
2023/06/13 12:18:19;;;;;;;9.43;3.90;;;28.30;99.90;;;;;;4972572;28;20442;-74
2023/06/13 12:20:56;;;;;;;8.13;3.65;;;28.70;99.90;;;;;;4970270;28;20406;-75
2023/06/13 12:23:30;;;;;;;8.57;3.07;;;29.10;99.90;;;;;;4968089;28;20408;-75
2023/06/13 12:25:57;;;;;;;8.50;3.90;;;29.30;99.90;;;;;;4971311;28;20892;-75
2023/06/13 12:28:23;;;;;;;11.80;3.40;;;29.20;99.90;;;;;;4971570;28;20423;-75
2023/06/13 12:30:49;;;;;;;7.88;3.50;;;29.10;99.90;;;;;;4970857;28;20404;-75
2023/06/13 12:33:19;;;;;;;9.02;4.20;;;28.90;99.90;;;;;;4968859;28;20415;-75
2023/06/13 12:35:52;;;;;;;8.20;3.20;;;28.50;99.90;;;;;;4954092;28;20428;-75
2023/06/13 12:38:29;;;;;;;9.38;3.88;;;28.20;99.90;;;;;;4968847;28;20400;-75
2023/06/13 12:40:56;;;;;;;8.40;3.80;;;28.30;99.90;;;;;;4968969;28;20878;-74
2023/06/13 12:43:26;;;;;;;8.53;3.10;;;28.30;99.90;;;;;;4971299;28;20399;-75
2023/06/13 12:45:54;;;;;;;9.43;3.50;;;28.50;99.90;;;;;;4971144;28;20403;-75
2023/06/13 12:48:20;;;;;;;10.18;3.67;;;28.40;99.90;;;;;;4970802;28;20400;-75